Time;durP1;ratioP1;P1;durP2;ratioP2;P2;SDS_P1;SDS_P2;PMS_P1;PMS_P2;Temp;Humidity;BMP_temperature;BMP_pressure;BME280_temperature;BME280_humidity;BME280_pressure;Samples;Min_cycle;Max_cycle;Signal;HPM_P1;HPM_P2
2021/05/20 00:02:10;;;;;;;6.33;5.73;;;;;;;8.44;100.00;101096.75;4954048;28;20238;-78
2021/05/20 00:04:36;;;;;;;6.57;5.97;;;;;;;8.49;100.00;101093.28;4971608;28;20187;-77
2021/05/20 00:07:04;;;;;;;6.87;6.20;;;;;;;8.56;100.00;101104.78;4954682;28;20234;-77
2021/05/20 00:09:30;;;;;;;7.67;6.30;;;;;;;8.53;100.00;101100.69;4969650;28;20201;-75
2021/05/20 00:11:56;;;;;;;6.47;5.90;;;;;;;8.54;100.00;101096.06;4947664;28;20291;-76
2021/05/20 00:14:27;;;;;;;6.03;5.53;;;;;;;8.63;100.00;101100.00;4939396;28;20233;-75
2021/05/20 00:16:56;;;;;;;6.53;5.93;;;;;;;8.39;100.00;101098.56;4942280;28;20221;-79
2021/05/20 00:19:22;;;;;;;7.40;6.70;;;;;;;8.36;100.00;101099.03;4972956;28;20735;-76
2021/05/20 00:21:47;;;;;;;6.70;5.93;;;;;;;8.17;100.00;101100.38;4939000;28;20230;-77
2021/05/20 00:24:20;;;;;;;6.00;5.30;;;;;;;8.08;100.00;101107.22;4931737;28;20252;-76
2021/05/20 00:26:50;;;;;;;6.67;5.50;;;;;;;7.98;100.00;101102.69;4938791;28;20250;-76
2021/05/20 00:29:16;;;;;;;5.70;5.20;;;;;;;7.94;100.00;101104.25;4932051;28;20258;-76
2021/05/20 00:31:42;;;;;;;6.40;5.80;;;;;;;8.03;100.00;101104.41;4956412;28;20214;-76
2021/05/20 00:34:08;;;;;;;6.37;5.77;;;;;;;7.92;100.00;101101.78;4971540;28;20575;-75
2021/05/20 00:36:35;;;;;;;6.83;6.13;;;;;;;7.89;100.00;101101.44;4954830;28;20218;-76
2021/05/20 00:39:03;;;;;;;6.83;6.10;;;;;;;7.80;100.00;101102.91;4940512;28;20186;-77
2021/05/20 00:41:31;;;;;;;7.17;6.47;;;;;;;7.73;100.00;101102.25;4960910;28;20685;-77
2021/05/20 00:43:57;;;;;;;7.47;6.37;;;;;;;7.61;100.00;101117.69;4967272;28;20232;-78
2021/05/20 00:46:25;;;;;;;7.13;6.40;;;;;;;7.69;100.00;101117.28;4942890;28;20238;-78
2021/05/20 00:48:50;;;;;;;7.13;6.43;;;;;;;7.58;100.00;101118.19;4935575;29;20270;-77
2021/05/20 00:51:18;;;;;;;6.97;6.27;;;;;;;7.58;100.00;101118.19;4950060;28;20250;-78
2021/05/20 00:53:49;;;;;;;7.07;6.47;;;;;;;7.70;100.00;101118.94;4934694;29;20277;-76
2021/05/20 00:56:17;;;;;;;6.57;5.97;;;;;;;7.74;100.00;101104.69;4951169;28;20226;-76
2021/05/20 00:58:44;;;;;;;6.90;6.30;;;;;;;7.66;100.00;101115.91;4920179;29;20187;-76
2021/05/20 01:01:10;;;;;;;7.20;6.47;;;;;;;7.54;100.00;101117.00;4934710;29;20707;-76
2021/05/20 01:03:35;;;;;;;6.67;6.00;;;;;;;7.47;100.00;101113.66;4918497;29;20235;-77
2021/05/20 01:06:03;;;;;;;9.47;6.43;;;;;;;7.44;100.00;101116.81;4934850;29;20230;-77
2021/05/20 01:08:28;;;;;;;6.80;6.20;;;;;;;7.36;100.00;101117.22;4952023;28;20194;-76
2021/05/20 01:11:00;;;;;;;6.80;5.90;;;;;;;7.30;100.00;101120.84;4964283;28;20233;-76
2021/05/20 01:13:26;;;;;;;6.37;5.77;;;;;;;7.30;100.00;101131.66;4919040;29;20305;-76
2021/05/20 01:15:54;;;;;;;6.80;6.10;;;;;;;7.30;100.00;101128.97;4934924;29;20234;-76
2021/05/20 01:18:19;;;;;;;7.33;6.63;;;;;;;7.18;100.00;101140.03;4919622;29;20198;-77
2021/05/20 01:20:45;;;;;;;7.60;6.90;;;;;;;7.23;100.00;101145.56;4951814;28;20594;-77
2021/05/20 01:23:21;;;;;;;7.77;7.07;;;;;;;7.25;100.00;101135.31;4918421;29;20207;-77
2021/05/20 01:25:48;;;;;;;8.30;7.30;;;;;;;7.20;100.00;101144.16;4919734;29;20222;-77
2021/05/20 01:28:20;;;;;;;9.00;8.10;;;;;;;7.18;100.00;101142.75;4918991;29;20665;-77
2021/05/20 01:30:46;;;;;;;8.83;7.93;;;;;;;7.21;100.00;101139.56;4934759;29;20645;-77
2021/05/20 01:33:11;;;;;;;7.67;6.87;;;;;;;7.08;100.00;101147.94;4950421;28;20222;-77
2021/05/20 01:35:37;;;;;;;8.57;7.60;;;;;;;7.16;100.00;101155.66;4934556;29;20312;-77
2021/05/20 01:40:54;;;;;;;9.30;7.60;;;;;;;7.09;100.00;101160.41;4956224;28;20218;-77
2021/05/20 01:43:22;;;;;;;9.63;8.13;;;;;;;7.21;100.00;101172.00;4968814;28;20214;-77
2021/05/20 01:46:00;;;;;;;9.63;8.20;;;;;;;7.27;100.00;101166.47;4937683;28;20217;-76
2021/05/20 01:48:26;;;;;;;8.80;7.90;;;;;;;7.21;100.00;101161.19;4971730;28;20306;-78
2021/05/20 01:50:52;;;;;;;10.53;8.07;;;;;;;7.22;100.00;101176.34;4939067;28;20224;-76
2021/05/20 01:53:17;;;;;;;9.57;8.57;;;;;;;7.15;100.00;101164.84;4936776;29;20211;-78
2021/05/20 01:55:43;;;;;;;8.10;7.30;;;;;;;7.07;100.00;101170.59;4956794;28;20253;-77
2021/05/20 01:58:09;;;;;;;7.37;6.63;;;;;;;7.04;100.00;101165.69;4957553;28;20201;-77
2021/05/20 02:00:36;;;;;;;7.57;6.80;;;;;;;6.99;100.00;101168.25;4989485;28;20221;-77
2021/05/20 02:03:02;;;;;;;7.67;6.87;;;;;;;6.90;100.00;101175.06;4940452;28;20209;-78
2021/05/20 02:05:30;;;;;;;7.50;6.70;;;;;;;6.75;100.00;101176.63;4941540;28;20229;-78
2021/05/20 02:07:58;;;;;;;8.00;7.03;;;;;;;6.60;100.00;101185.16;4974650;28;20770;-78
2021/05/20 02:10:25;;;;;;;8.70;7.40;;;;;;;6.59;100.00;101175.44;4964993;28;20880;-77
2021/05/20 02:12:55;;;;;;;8.13;7.30;;;;;;;6.62;100.00;101177.66;4957389;28;20218;-77
2021/05/20 02:15:21;;;;;;;8.83;7.50;;;;;;;6.65;100.00;101182.59;4957268;28;20186;-78
2021/05/20 02:17:49;;;;;;;10.33;7.87;;;;;;;6.60;100.00;101182.47;4941386;28;20691;-77
2021/05/20 02:20:17;;;;;;;9.97;8.10;;;;;;;6.60;100.00;101174.38;4957197;28;20190;-77
2021/05/20 02:22:44;;;;;;;9.00;7.63;;;;;;;6.53;100.00;101181.75;4953580;28;20936;-78
2021/05/20 02:25:10;;;;;;;12.03;8.73;;;;;;;6.47;100.00;101178.38;4955972;28;20193;-77
2021/05/20 02:27:38;;;;;;;9.80;8.20;;;;;;;6.43;100.00;101177.16;4976914;28;20596;-76
2021/05/20 02:30:07;;;;;;;9.00;8.10;;;;;;;6.43;100.00;101180.72;4973613;28;20210;-77
2021/05/20 02:32:35;;;;;;;9.20;7.60;;;;;;;6.46;100.00;101176.72;4942091;28;20254;-78
2021/05/20 02:35:04;;;;;;;9.83;8.10;;;;;;;6.48;100.00;101169.19;4949253;28;20190;-77
2021/05/20 02:37:34;;;;;;;11.33;7.90;;;;;;;6.38;100.00;101179.75;4980417;28;20214;-77
2021/05/20 02:40:00;;;;;;;10.53;7.70;;;;;;;6.41;100.00;101187.38;4963975;28;20237;-78
2021/05/20 02:42:27;;;;;;;9.67;6.93;;;;;;;6.38;100.00;101185.16;4956442;28;20250;-77
2021/05/20 02:44:55;;;;;;;8.43;7.10;;;;;;;6.39;100.00;101186.78;4958514;28;20214;-77
2021/05/20 02:47:21;;;;;;;8.27;7.07;;;;;;;6.44;100.00;101190.44;4959115;28;20230;-75
2021/05/20 02:49:49;;;;;;;9.27;7.60;;;;;;;6.41;100.00;101188.22;4944173;28;20190;-76
2021/05/20 02:52:14;;;;;;;8.90;7.87;;;;;;;6.32;100.00;101186.09;4948312;28;20387;-77
2021/05/20 02:54:40;;;;;;;9.47;7.90;;;;;;;6.32;100.00;101191.47;4953479;29;20187;-76
2021/05/20 02:57:09;;;;;;;9.97;8.00;;;;;;;6.33;100.00;101193.13;4952594;28;20227;-77
2021/05/20 02:59:36;;;;;;;10.93;8.93;;;;;;;6.46;100.00;101187.50;4953335;29;20209;-77
2021/05/20 03:02:04;;;;;;;11.17;8.97;;;;;;;6.55;100.00;101181.53;4919525;29;20242;-78
2021/05/20 03:04:35;;;;;;;11.37;9.87;;;;;;;6.59;100.00;101178.16;4937791;29;20229;-76
2021/05/20 03:07:03;;;;;;;9.63;8.63;;;;;;;6.53;100.00;101183.63;4937419;29;20357;-76
2021/05/20 03:09:31;;;;;;;10.50;8.00;;;;;;;6.47;100.00;101179.19;4937639;29;20175;-77
2021/05/20 03:12:03;;;;;;;9.70;8.20;;;;;;;6.45;100.00;101183.19;4951900;28;20246;-76
2021/05/20 03:14:29;;;;;;;11.30;8.87;;;;;;;6.29;100.00;101186.53;4938064;29;20193;-76
2021/05/20 03:16:57;;;;;;;9.03;7.77;;;;;;;6.17;100.00;101182.97;4952977;28;20227;-76
2021/05/20 03:19:22;;;;;;;10.87;8.50;;;;;;;6.14;100.00;101183.47;4922385;29;20664;-77
2021/05/20 03:21:48;;;;;;;20.60;8.60;;;;;;;6.13;100.00;101186.38;4949285;28;20221;-76
2021/05/20 03:24:16;;;;;;;14.43;9.47;;;;;;;6.14;100.00;101188.84;4959772;28;20189;-78
2021/05/20 03:26:42;;;;;;;14.13;8.57;;;;;;;6.07;100.00;101196.22;4976118;28;20280;-77
2021/05/20 03:29:08;;;;;;;12.53;9.67;;;;;;;6.16;100.00;101192.13;4992243;28;20589;-77
2021/05/20 03:31:35;;;;;;;12.83;9.63;;;;;;;6.11;100.00;101199.28;4975625;28;20614;-78
2021/05/20 03:34:01;;;;;;;12.83;9.87;;;;;;;6.02;100.00;101198.75;4993377;28;20209;-76
2021/05/20 03:36:34;;;;;;;13.27;9.60;;;;;;;6.11;100.00;101199.28;4987050;28;20242;-77
2021/05/20 03:39:03;;;;;;;11.47;9.70;;;;;;;6.27;100.00;101194.03;4948644;28;20190;-76
2021/05/20 03:41:30;;;;;;;12.73;10.00;;;;;;;6.34;100.00;101189.38;4985221;28;20221;-77
2021/05/20 03:43:59;;;;;;;17.67;11.27;;;;;;;6.46;100.00;101192.91;4959717;28;20938;-76
2021/05/20 03:46:29;;;;;;;16.67;11.60;;;;;;;6.47;100.00;101194.56;4975582;28;20236;-77
2021/05/20 03:48:57;;;;;;;16.10;11.17;;;;;;;6.50;100.00;101199.47;4976152;28;20345;-77
2021/05/20 03:51:22;;;;;;;18.53;10.63;;;;;;;6.47;100.00;101199.94;4976425;28;20311;-76
2021/05/20 03:53:51;;;;;;;14.13;9.97;;;;;;;6.40;100.00;101213.53;4990401;28;20713;-76
2021/05/20 03:56:19;;;;;;;13.47;10.57;;;;;;;6.49;100.00;101214.03;4985560;28;20841;-77
2021/05/20 03:58:44;;;;;;;12.93;10.40;;;;;;;6.57;100.00;101209.09;4959124;28;20177;-75
2021/05/20 04:01:10;;;;;;;20.97;8.80;;;;;;;6.58;100.00;101205.34;4977295;28;20759;-77
2021/05/20 04:03:36;;;;;;;14.40;10.60;;;;;;;6.66;100.00;101205.81;4970860;28;20221;-78
2021/05/20 04:06:04;;;;;;;10.93;9.83;;;;;;;6.51;100.00;101208.16;4958243;28;20717;-76
2021/05/20 04:08:32;;;;;;;11.93;9.63;;;;;;;6.73;100.00;101211.13;4971620;28;20186;-77
2021/05/20 04:11:00;;;;;;;13.87;9.10;;;;;;;6.78;100.00;101208.53;4942038;28;20673;-77
2021/05/20 04:13:32;;;;;;;10.20;9.17;;;;;;;6.91;100.00;101209.13;4972222;28;20268;-75
2021/05/20 04:16:00;;;;;;;11.80;9.43;;;;;;;7.02;100.00;101205.59;4973044;28;20690;-76
2021/05/20 04:18:26;;;;;;;11.77;9.27;;;;;;;6.90;100.00;101202.06;4974032;28;20222;-76
2021/05/20 04:20:52;;;;;;;9.57;8.67;;;;;;;7.00;100.00;101207.72;4997679;28;20272;-77
2021/05/20 04:23:22;;;;;;;9.10;8.20;;;;;;;7.05;100.00;101214.06;4986720;28;20210;-77
2021/05/20 04:25:51;;;;;;;8.63;7.80;;;;;;;7.11;100.00;101212.28;4977464;28;20236;-78
2021/05/20 04:28:16;;;;;;;8.30;7.50;;;;;;;7.20;100.00;101213.56;4994948;28;20277;-77
2021/05/20 04:30:42;;;;;;;7.77;6.97;;;;;;;7.36;100.00;101221.75;4977987;28;20260;-77
2021/05/20 04:33:08;;;;;;;7.83;7.13;;;;;;;7.44;100.00;101216.81;4986677;28;20269;-77
2021/05/20 04:35:34;;;;;;;8.63;7.73;;;;;;;7.43;100.00;101214.34;4938079;28;20278;-75
2021/05/20 04:38:04;;;;;;;13.10;11.70;;;;;;;7.51;100.00;101212.09;4970147;28;20565;-76
2021/05/20 04:40:32;;;;;;;14.60;12.03;;;;;;;7.53;100.00;101226.19;4946460;28;20233;-77
2021/05/20 04:42:57;;;;;;;7.90;7.20;;;;;;;7.37;100.00;101223.41;4935448;28;20689;-76
2021/05/20 04:45:23;;;;;;;7.87;7.07;;;;;;;7.27;100.00;101235.88;4935865;28;20237;-76
2021/05/20 04:47:49;;;;;;;9.03;8.13;;;;;;;7.60;100.00;101237.72;4960334;28;20230;-77
2021/05/20 04:50:19;;;;;;;13.90;12.47;;;;;;;7.87;100.00;101238.78;4951429;28;20197;-76
2021/05/20 04:52:45;;;;;;;11.37;10.20;;;;;;;7.97;100.00;101233.59;4966286;28;20206;-77
2021/05/20 04:55:11;;;;;;;9.57;8.57;;;;;;;7.96;100.00;101231.94;4989799;28;20633;-77
2021/05/20 04:57:39;;;;;;;8.83;8.03;;;;;;;8.17;100.00;101235.66;4958273;28;20253;-77
2021/05/20 05:00:06;;;;;;;8.47;7.67;;;;;;;8.20;100.00;101237.03;4990248;28;20194;-77
2021/05/20 05:02:34;;;;;;;7.90;7.17;;;;;;;8.25;100.00;101237.13;4973246;28;20233;-77
2021/05/20 05:05:08;;;;;;;8.57;7.77;;;;;;;8.29;100.00;101239.09;5005964;28;20178;-76
2021/05/20 05:07:33;;;;;;;8.00;7.20;;;;;;;8.15;100.00;101237.78;4973419;28;20895;-77
2021/05/20 05:09:59;;;;;;;8.13;7.43;;;;;;;8.20;100.00;101243.25;4974431;28;20193;-76
2021/05/20 05:12:26;;;;;;;7.83;7.03;;;;;;;8.29;100.00;101241.00;4973089;28;20234;-77
2021/05/20 05:14:52;;;;;;;9.10;8.20;;;;;;;8.46;100.00;101245.34;4991546;28;20182;-76
2021/05/20 05:17:17;;;;;;;10.20;8.73;;;;;;;8.47;100.00;101247.00;4973382;28;20233;-77
2021/05/20 05:19:45;;;;;;;9.03;8.13;;;;;;;8.49;100.00;101242.16;4968307;28;20174;-75
2021/05/20 05:22:11;;;;;;;9.10;8.23;;;;;;;8.35;100.00;101242.72;4949408;28;20223;-75
2021/05/20 05:24:36;;;;;;;9.10;8.30;;;;;;;8.81;100.00;101232.41;4985038;28;20190;-77
2021/05/20 05:27:05;;;;;;;9.37;7.77;;;;;;;8.87;100.00;101238.50;4964871;28;20225;-76
2021/05/20 05:29:32;;;;;;;9.43;8.53;;;;;;;8.42;100.00;101249.63;4948761;28;20282;-74
2021/05/20 05:32:01;;;;;;;8.87;8.03;;;;;;;8.43;100.00;101249.38;4957927;28;20220;-74
2021/05/20 05:34:26;;;;;;;9.30;8.40;;;;;;;8.37;100.00;101246.84;4950920;28;20183;-74
2021/05/20 05:36:52;;;;;;;9.63;8.73;;;;;;;8.55;100.00;101243.88;4960153;28;20277;-76
2021/05/20 05:39:18;;;;;;;10.63;9.40;;;;;;;8.47;100.00;101238.88;4960618;28;20281;-76
2021/05/20 05:41:46;;;;;;;10.40;9.40;;;;;;;8.56;100.00;101256.38;4981522;28;20225;-78
2021/05/20 05:44:14;;;;;;;10.67;9.57;;;;;;;8.81;100.00;101251.38;4987348;28;20537;-77
2021/05/20 05:46:40;;;;;;;10.40;9.40;;;;;;;9.05;100.00;101251.78;4974836;28;20236;-77
2021/05/20 05:49:29;;;;;;;10.80;9.80;;;;;;;9.13;100.00;101259.50;4994198;28;20260;-77
2021/05/20 05:51:58;;;;;;;10.93;9.83;;;;;;;9.43;100.00;101249.09;4997839;28;20241;-76
2021/05/20 05:54:28;;;;;;;10.87;9.87;;;;;;;9.67;100.00;101257.56;4989953;28;20186;-77
2021/05/20 05:56:54;;;;;;;11.13;9.97;;;;;;;10.02;100.00;101241.75;4995265;28;20222;-77
2021/05/20 05:59:19;;;;;;;11.23;10.13;;;;;;;10.36;100.00;101248.63;4994103;28;20190;-77
2021/05/20 06:01:45;;;;;;;10.93;9.83;;;;;;;10.36;100.00;101240.50;4975407;28;20283;-77
2021/05/20 06:04:11;;;;;;;10.40;9.47;;;;;;;10.73;100.00;101245.72;4973563;28;20555;-77
2021/05/20 06:06:36;;;;;;;9.67;8.77;;;;;;;10.76;100.00;101248.75;4976599;28;20727;-76
2021/05/20 06:09:05;;;;;;;9.70;8.73;;;;;;;10.87;100.00;101245.03;4957313;28;20182;-76
2021/05/20 06:11:33;;;;;;;9.70;8.70;;;;;;;10.84;100.00;101242.00;4975042;28;20213;-77
2021/05/20 06:14:05;;;;;;;8.53;7.73;;;;;;;11.26;100.00;101251.84;4976488;28;20247;-76
2021/05/20 06:16:30;;;;;;;8.97;8.07;;;;;;;11.48;100.00;101249.84;5007827;28;20230;-76
2021/05/20 06:18:56;;;;;;;6.50;5.43;;;;;;;11.58;100.00;101258.88;4959823;28;20196;-76
2021/05/20 06:21:22;;;;;;;6.53;4.90;;;;;;;11.91;100.00;101242.97;4970426;28;20226;-78
2021/05/20 06:23:50;;;;;;;4.50;4.10;;;;;;;11.92;100.00;101250.03;4984030;28;20177;-77
2021/05/20 06:26:18;;;;;;;4.60;4.20;;;;;;;11.79;100.00;101255.16;4976398;28;20264;-75
2021/05/20 06:28:48;;;;;;;3.70;3.40;;;;;;;12.19;100.00;101251.50;4994342;28;20247;-76
2021/05/20 06:31:18;;;;;;;4.40;3.30;;;;;;;11.92;100.00;101245.44;4994350;28;20279;-76
2021/05/20 06:33:44;;;;;;;4.13;2.90;;;;;;;12.31;100.00;101250.19;4959548;28;20803;-75
2021/05/20 06:36:10;;;;;;;3.10;2.80;;;;;;;12.38;100.00;101249.91;4959125;28;20217;-76
2021/05/20 06:38:36;;;;;;;3.83;3.47;;;;;;;12.36;100.00;101246.66;4972998;28;20198;-77
2021/05/20 06:41:05;;;;;;;3.27;2.70;;;;;;;12.38;100.00;101245.31;4960052;28;20229;-75
2021/05/20 06:43:31;;;;;;;2.60;2.40;;;;;;;12.31;99.31;101250.19;4960376;28;20911;-77
2021/05/20 06:45:57;;;;;;;3.33;2.47;;;;;;;12.13;100.00;101241.69;4975934;28;20225;-77
2021/05/20 06:48:24;;;;;;;2.20;2.00;;;;;;;12.41;99.02;101243.94;4976281;28;20182;-76
2021/05/20 06:50:50;;;;;;;3.30;2.10;;;;;;;12.31;97.36;101250.19;4955824;28;20261;-77
2021/05/20 06:53:20;;;;;;;2.13;1.90;;;;;;;12.48;95.37;101249.94;4952032;28;20202;-75
2021/05/20 06:55:46;;;;;;;2.13;1.90;;;;;;;12.48;98.46;101255.41;4944304;28;20300;-77
2021/05/20 07:00:58;;;;;;;1.87;1.60;;;;;;;12.92;92.04;101252.75;4926319;28;20250;-75
2021/05/20 07:03:27;;;;;;;2.47;1.70;;;;;;;13.08;91.67;101251.66;4956725;28;20229;-75
2021/05/20 07:05:58;;;;;;;3.17;1.30;;;;;;;12.97;92.70;101254.66;4975214;28;20244;-75
2021/05/20 07:08:26;;;;;;;2.37;1.30;;;;;;;13.12;87.58;101253.53;4976295;28;20206;-76
2021/05/20 07:10:54;;;;;;;2.57;1.33;;;;;;;12.91;89.02;101250.28;4985684;28;20668;-77
2021/05/20 07:13:20;;;;;;;1.97;1.50;;;;;;;13.39;86.37;101251.34;4974206;28;20226;-77
2021/05/20 07:15:50;;;;;;;2.43;1.47;;;;;;;13.06;84.61;101255.72;4956593;28;20245;-74
2021/05/20 07:18:18;;;;;;;2.23;1.30;;;;;;;13.40;84.83;101260.34;4988359;28;20236;-75
2021/05/20 07:20:48;;;;;;;1.80;1.23;;;;;;;13.40;82.54;101252.16;4973806;28;20240;-78
2021/05/20 07:23:20;;;;;;;1.73;1.10;;;;;;;13.81;78.36;101263.50;4972168;28;20236;-79
2021/05/20 07:25:48;;;;;;;1.50;1.10;;;;;;;13.50;77.87;101256.50;4939468;28;20232;-76
2021/05/20 07:28:16;;;;;;;1.80;1.33;;;;;;;13.52;79.30;101256.22;5002479;28;20221;-76
2021/05/20 07:30:42;;;;;;;2.30;1.30;;;;;;;14.17;79.32;101252.16;4955560;28;20213;-75
2021/05/20 07:33:09;;;;;;;2.53;1.10;;;;;;;13.99;77.56;101254.69;4991858;28;20190;-77
2021/05/20 07:35:34;;;;;;;2.53;1.67;;;;;;;14.32;72.35;101254.81;4991101;28;20304;-76
2021/05/20 07:38:00;;;;;;;1.90;1.20;;;;;;;14.21;73.55;101246.97;4992925;28;20189;-77
2021/05/20 07:40:39;;;;;;;1.30;1.10;;;;;;;14.31;71.40;101259.47;4971381;28;20229;-75
2021/05/20 07:43:07;;;;;;;1.40;1.30;;;;;;;13.84;71.89;101255.59;4974808;28;20209;-74
2021/05/20 07:45:36;;;;;;;2.00;1.20;;;;;;;13.37;75.79;101255.41;4976179;28;20392;-76
2021/05/20 07:48:06;;;;;;;1.70;1.40;;;;;;;13.75;74.91;101255.59;4993597;28;20337;-75
2021/05/20 07:50:34;;;;;;;2.33;1.30;;;;;;;14.12;71.95;101254.09;4993641;28;20742;-76
2021/05/20 07:53:02;;;;;;;3.07;1.30;;;;;;;14.21;71.18;101241.50;4976696;28;20206;-75
2021/05/20 07:55:27;;;;;;;2.50;1.53;;;;;;;14.27;73.86;101247.47;4958180;28;20221;-76
2021/05/20 07:57:56;;;;;;;3.43;1.40;;;;;;;13.89;73.03;101255.53;4991285;28;20197;-75
2021/05/20 08:00:22;;;;;;;2.17;1.40;;;;;;;14.19;71.42;101255.44;4983273;28;20668;-75
2021/05/20 08:02:54;;;;;;;2.23;1.40;;;;;;;14.35;69.48;101254.25;4990028;28;20215;-75
2021/05/20 08:05:36;;;;;;;1.73;1.27;;;;;;;14.36;66.60;101245.78;4990254;28;20192;-75
2021/05/20 08:13:16;;;;;;;1.73;1.27;;;;;;;14.91;64.83;101237.16;4989758;28;20271;-76
2021/05/20 08:15:42;;;;;;;2.27;1.30;;;;;;;15.01;63.98;101243.38;4990209;28;20256;-76
2021/05/20 08:18:10;;;;;;;2.90;1.67;;;;;;;14.59;65.28;101249.75;4971120;28;20181;-75
2021/05/20 08:20:38;;;;;;;1.40;1.30;;;;;;;14.46;65.89;101244.91;4973323;28;20315;-75
2021/05/20 08:23:03;;;;;;;1.93;1.43;;;;;;;14.32;66.56;101236.53;4984532;28;20209;-75
2021/05/20 08:25:31;;;;;;;2.40;1.57;;;;;;;14.68;68.87;101232.44;4939695;28;20225;-76
2021/05/20 08:27:58;;;;;;;1.47;1.30;;;;;;;14.98;67.59;101221.25;4974220;28;20311;-76
2021/05/20 08:30:23;;;;;;;2.23;1.30;;;;;;;15.73;63.10;101235.81;4957690;28;20274;-76
2021/05/20 08:32:49;;;;;;;1.50;1.40;;;;;;;15.22;64.46;101228.44;4957253;28;20214;-75
2021/05/20 08:35:17;;;;;;;1.85;1.50;;;;;;;15.07;67.05;101226.66;4989931;28;20569;-75
2021/05/20 08:37:43;;;;;;;2.33;1.35;;;;;;;15.70;64.59;101230.94;4965647;28;20186;-76
2021/05/20 08:40:10;;;;;;;1.20;1.10;;;;;;;15.45;61.13;101232.00;4973681;28;20178;-75
2021/05/20 08:42:38;;;;;;;4.10;1.20;;;;;;;15.67;61.65;101237.00;4973091;28;20209;-78
2021/05/20 08:45:11;;;;;;;1.20;1.10;;;;;;;15.33;59.27;101244.50;4989011;28;20280;-77
2021/05/20 08:47:39;;;;;;;1.57;0.90;;;;;;;15.50;58.54;101233.91;4958031;28;20213;-77
2021/05/20 08:50:07;;;;;;;1.55;0.90;;;;;;;16.10;56.70;101228.50;5006433;28;20192;-76
2021/05/20 08:52:35;;;;;;;1.20;1.10;;;;;;;16.75;56.05;101224.53;4949704;28;20233;-76
2021/05/20 08:55:06;;;;;;;1.55;1.00;;;;;;;16.50;57.09;101220.53;4974489;28;20270;-75
2021/05/20 08:57:34;;;;;;;1.25;0.85;;;;;;;15.97;56.60;101218.25;4957216;28;20215;-76
2021/05/20 09:00:09;;;;;;;3.50;1.13;;;;;;;16.12;58.37;101218.06;4970017;28;20197;-76
2021/05/20 09:02:37;;;;;;;2.50;0.93;;;;;;;16.71;58.25;101223.50;4954657;28;20241;-76
2021/05/20 09:05:21;;;;;;;1.20;1.10;;;;;;;16.56;58.32;101223.75;4988946;28;20422;-76
2021/05/20 09:07:51;;;;;;;1.20;0.90;;;;;;;15.96;54.94;101231.16;4973885;28;20305;-75
2021/05/20 09:10:23;;;;;;;1.80;1.25;;;;;;;16.27;56.17;101235.16;4965257;28;20193;-77
2021/05/20 09:12:58;;;;;;;1.67;1.20;;;;;;;15.77;57.61;101222.06;4988718;28;20213;-75
2021/05/20 09:15:26;;;;;;;1.30;1.17;;;;;;;15.55;57.10;101231.13;4991051;28;20236;-76
2021/05/20 09:18:00;;;;;;;1.70;0.93;;;;;;;14.90;59.34;101246.50;4988342;28;20217;-76
2021/05/20 09:20:31;;;;;;;2.72;1.10;;;;;;;14.71;61.72;101242.81;4990937;28;20962;-75
2021/05/20 09:23:05;;;;;;;1.35;1.20;;;;;;;15.16;63.13;101235.91;4968736;28;20715;-75
2021/05/20 09:25:33;;;;;;;1.20;1.10;;;;;;;15.72;61.22;101239.69;4990086;28;20254;-75
2021/05/20 09:27:59;;;;;;;1.67;1.33;;;;;;;15.97;59.99;101232.78;4956723;28;20360;-75
2021/05/20 09:30:28;;;;;;;2.80;1.45;;;;;;;16.21;59.52;101230.84;4957653;28;20867;-74
2021/05/20 09:32:58;;;;;;;1.92;1.77;;;;;;;15.35;62.88;101239.53;4989309;28;20205;-75
2021/05/20 09:35:28;;;;;;;2.45;1.85;;;;;;;15.62;65.88;101239.78;4957657;28;20228;-75
2021/05/20 09:38:04;;;;;;;2.47;2.28;;;;;;;15.84;62.34;101238.97;4989481;28;20638;-75
2021/05/20 09:40:44;;;;;;;1.88;1.60;;;;;;;16.18;60.64;101231.44;4973033;28;20311;-74
2021/05/20 09:43:23;;;;;;;2.22;1.55;;;;;;;16.67;58.78;101227.16;4954288;28;20228;-75
2021/05/20 09:45:52;;;;;;;1.20;1.20;;;;;;;16.49;57.58;101233.44;4967665;28;20222;-76
2021/05/20 09:48:18;;;;;;;1.83;1.60;;;;;;;16.48;57.30;101231.00;4954238;28;20213;-75
2021/05/20 09:50:45;;;;;;;1.75;1.65;;;;;;;16.92;57.54;101223.97;4972032;28;20250;-75
2021/05/20 09:53:13;;;;;;;1.75;1.50;;;;;;;16.69;56.73;101225.72;4968052;28;20217;-73
2021/05/20 09:55:54;;;;;;;2.00;1.77;;;;;;;17.18;55.79;101223.28;4943627;29;20696;-74
2021/05/20 09:58:23;;;;;;;2.72;1.52;;;;;;;17.38;56.39;101224.56;4952656;29;20183;-74
2021/05/20 10:00:49;;;;;;;1.52;1.42;;;;;;;16.78;55.95;101212.97;4920157;29;20230;-75
2021/05/20 10:03:16;;;;;;;1.70;1.52;;;;;;;17.61;55.90;101209.81;4919324;29;20218;-75
2021/05/20 10:05:46;;;;;;;2.45;1.80;;;;;;;17.48;56.01;101202.38;4951329;28;20250;-74
2021/05/20 10:08:12;;;;;;;1.75;1.50;;;;;;;16.79;57.81;101211.03;4921234;29;20246;-75
2021/05/20 10:10:51;;;;;;;4.25;2.50;;;;;;;16.16;62.47;101208.94;4953024;28;20226;-75
2021/05/20 10:13:19;;;;;;;3.17;2.70;;;;;;;16.37;63.14;101207.56;4959983;28;21211;-73
2021/05/20 10:15:45;;;;;;;2.97;2.13;;;;;;;16.83;60.21;101210.16;4946608;29;20298;-74
2021/05/20 10:18:12;;;;;;;2.53;2.22;;;;;;;17.01;61.09;101201.03;4961919;28;20639;-75
2021/05/20 10:20:39;;;;;;;4.40;2.70;;;;;;;16.74;60.34;101211.09;4952518;28;20342;-74
2021/05/20 10:23:09;;;;;;;8.38;6.57;;;;;;;17.02;57.52;101205.41;4973805;28;20213;-76
2021/05/20 10:25:40;;;;;;;2.30;2.10;;;;;;;17.34;57.44;101185.09;4955046;28;20477;-76
2021/05/20 10:28:09;;;;;;;2.28;2.08;;;;;;;17.59;56.98;101186.53;4966034;28;20265;-76
2021/05/20 10:30:35;;;;;;;2.10;1.92;;;;;;;18.11;57.14;101178.56;4960396;28;20218;-79
2021/05/20 10:33:04;;;;;;;1.85;1.70;;;;;;;17.64;54.80;101184.47;4959973;28;20288;-79
2021/05/20 10:35:45;;;;;;;2.13;1.85;;;;;;;18.07;57.12;101185.75;4960099;28;20268;-77
2021/05/20 10:38:32;;;;;;;1.77;1.60;;;;;;;18.02;54.17;101174.88;4994574;28;20180;-77
2021/05/20 10:41:19;;;;;;;3.28;1.60;;;;;;;17.86;51.82;101177.13;4973949;28;20233;-76
2021/05/20 10:43:46;;;;;;;2.33;1.60;;;;;;;17.66;53.68;101182.25;4977364;28;20247;-76
2021/05/20 10:46:16;;;;;;;1.90;1.77;;;;;;;18.10;52.98;101174.19;4960903;28;20228;-77
2021/05/20 10:48:52;;;;;;;2.63;1.60;;;;;;;18.56;52.73;101166.16;4992757;28;20194;-76
2021/05/20 10:51:29;;;;;;;3.05;1.90;;;;;;;18.73;53.80;101157.22;4949148;28;20276;-75
2021/05/20 10:54:04;;;;;;;2.22;1.85;;;;;;;18.41;54.44;101162.97;4966289;28;20280;-76
2021/05/20 10:56:32;;;;;;;1.70;1.60;;;;;;;18.55;51.83;101161.81;4992101;28;20695;-76
2021/05/20 10:58:59;;;;;;;1.90;1.10;;;;;;;18.48;49.64;101162.53;4992994;28;20186;-76
2021/05/20 11:01:30;;;;;;;1.63;1.00;;;;;;;18.44;46.67;101156.84;4971339;28;20343;-77
2021/05/20 11:03:57;;;;;;;3.10;1.23;;;;;;;17.33;47.43;101160.66;4982313;28;20189;-76
2021/05/20 11:06:46;;;;;;;0.98;0.80;;;;;;;18.35;47.63;101152.41;4960176;28;20217;-75
2021/05/20 11:09:15;;;;;;;0.90;0.80;;;;;;;18.75;46.72;101147.53;4978948;28;20228;-78
2021/05/20 11:11:43;;;;;;;2.65;1.00;;;;;;;18.27;46.88;101140.19;4977222;28;20249;-77
2021/05/20 11:14:14;;;;;;;1.60;0.93;;;;;;;18.27;47.96;101142.13;4993943;28;20237;-76
2021/05/20 11:16:44;;;;;;;1.23;0.90;;;;;;;18.05;47.51;101142.06;4992835;28;20231;-77
2021/05/20 11:19:30;;;;;;;1.90;1.10;;;;;;;17.28;48.27;101144.28;4976582;28;20224;-75
2021/05/20 11:22:05;;;;;;;2.97;1.25;;;;;;;17.02;49.25;101132.09;4961039;28;20261;-75
2021/05/20 11:24:36;;;;;;;0.93;0.70;;;;;;;16.90;50.32;101124.66;4974613;28;20272;-79
2021/05/20 11:27:06;;;;;;;2.47;1.10;;;;;;;17.53;49.96;101127.31;4987829;28;20292;-75
2021/05/20 11:29:33;;;;;;;1.38;0.93;;;;;;;18.18;47.55;101120.06;4976658;28;20671;-74
2021/05/20 11:32:23;;;;;;;1.35;1.00;;;;;;;18.31;48.12;101119.19;4958749;28;20671;-75
2021/05/20 11:37:39;;;;;;;2.10;0.90;;;;;;;18.42;45.28;101103.25;4975105;28;20241;-72
2021/05/20 11:40:08;;;;;;;1.30;0.98;;;;;;;17.90;45.95;101100.38;4977874;28;20257;-73
2021/05/20 11:42:40;;;;;;;1.25;0.90;;;;;;;18.72;45.10;101097.81;4958129;28;20216;-74